createdAt,value
2018-03-08T00:01:03.870Z,7.34
2018-03-08T00:06:04.123Z,7.35
2018-03-08T00:11:03.786Z,7.36
2018-03-08T00:16:04.073Z,7.36
2018-03-08T00:21:03.823Z,7.35
2018-03-08T00:26:03.767Z,7.36
2018-03-08T00:31:05.904Z,7.36
2018-03-08T00:36:04.494Z,7.37
2018-03-08T00:41:04.074Z,7.37
2018-03-08T00:46:04.303Z,7.35
2018-03-08T00:51:03.760Z,7.36
2018-03-08T00:56:03.984Z,7.36
2018-03-08T01:01:04.268Z,7.34
2018-03-08T01:06:03.706Z,7.34
2018-03-08T01:11:04.305Z,7.37
2018-03-08T01:16:03.590Z,7.36
2018-03-08T01:21:04.067Z,7.34
2018-03-08T01:26:04.284Z,7.35
2018-03-08T01:31:03.577Z,7.39
2018-03-08T01:36:04.028Z,7.36
2018-03-08T01:41:03.633Z,7.35
2018-03-08T01:46:03.874Z,7.37
2018-03-08T01:51:04.315Z,7.39
2018-03-08T01:56:03.538Z,7.38
2018-03-08T02:01:03.814Z,7.39
2018-03-08T02:06:04.246Z,7.39
2018-03-08T02:11:03.880Z,7.41
2018-03-08T02:16:04.160Z,7.37
2018-03-08T02:21:03.641Z,7.40
2018-03-08T02:26:03.845Z,7.38
2018-03-08T02:31:04.122Z,7.37
2018-03-08T02:36:03.604Z,7.39
2018-03-08T02:41:04.173Z,7.39
2018-03-08T02:46:04.439Z,7.41
2018-03-08T02:51:03.872Z,7.39
2018-03-08T02:56:04.125Z,7.39
2018-03-08T03:01:04.372Z,7.40
2018-03-08T03:06:03.858Z,7.40
2018-03-08T03:11:04.461Z,7.41
2018-03-08T03:16:03.716Z,7.37
2018-03-08T03:21:04.218Z,7.40
2018-03-08T03:26:04.432Z,7.39
2018-03-08T03:31:03.716Z,7.41
2018-03-08T03:36:04.144Z,7.39
2018-03-08T03:41:03.749Z,7.37
2018-03-08T03:46:04.002Z,7.39
2018-03-08T03:51:04.474Z,7.38
2018-03-08T03:56:05.483Z,7.37
2018-03-08T04:01:04.004Z,7.36
2018-03-08T04:06:04.393Z,7.36
2018-03-08T04:11:04.010Z,7.33
2018-03-08T04:16:04.292Z,7.35
2018-03-08T04:21:03.774Z,7.34
2018-03-08T04:26:05.566Z,7.33
2018-03-08T04:31:04.256Z,7.36
2018-03-08T04:36:03.706Z,7.34
2018-03-08T04:41:04.308Z,7.33
2018-03-08T04:46:03.580Z,7.33
2018-03-08T04:51:04.034Z,7.34
2018-03-08T04:56:04.272Z,7.35
2018-03-08T05:01:03.548Z,7.35
2018-03-08T05:06:03.977Z,7.32
2018-03-08T05:11:03.607Z,7.32
2018-03-08T05:16:03.872Z,7.33
2018-03-08T05:21:04.397Z,7.34
2018-03-08T05:26:04.284Z,7.33
2018-03-08T05:31:03.555Z,7.31
2018-03-08T05:36:04.086Z,7.30
2018-03-08T05:41:03.605Z,7.31
2018-03-08T05:46:03.863Z,7.32
2018-03-08T05:51:04.312Z,7.34
2018-03-08T05:56:03.562Z,7.33
2018-03-08T06:01:03.786Z,7.31
2018-03-08T06:06:04.271Z,7.25
2018-03-08T06:11:03.867Z,7.16
2018-03-08T06:16:04.157Z,7.10
2018-03-08T06:21:03.624Z,7.04
2018-03-08T06:26:03.834Z,7.01
2018-03-08T06:31:06.072Z,6.94
2018-03-08T06:36:03.595Z,6.87
2018-03-08T06:41:04.185Z,6.72
2018-03-08T06:46:04.454Z,6.83
2018-03-08T06:51:03.891Z,6.93
2018-03-08T06:56:04.111Z,7.06
2018-03-08T07:01:04.366Z,7.09
2018-03-08T07:06:03.849Z,7.15
2018-03-08T07:11:04.390Z,7.20
2018-03-08T07:16:03.681Z,6.73
2018-03-08T07:21:04.169Z,6.93
2018-03-08T07:26:04.383Z,6.95
2018-03-08T07:31:03.669Z,7.02
2018-03-08T07:36:04.117Z,7.05
2018-03-08T07:41:03.724Z,7.08
2018-03-08T07:46:03.985Z,7.09
2018-03-08T07:51:04.449Z,7.10
2018-03-08T07:56:03.678Z,7.15
2018-03-08T08:01:03.952Z,7.17
2018-03-08T08:06:04.369Z,7.19
2018-03-08T08:11:03.964Z,7.22
2018-03-08T08:16:04.260Z,7.24
2018-03-08T08:21:03.925Z,7.23
2018-03-08T08:26:03.912Z,7.25
2018-03-08T08:31:04.221Z,7.25
2018-03-08T08:36:04.642Z,7.12
2018-03-08T08:41:04.242Z,7.16
2018-03-08T08:46:03.535Z,7.14
2018-03-08T08:51:03.960Z,7.15
2018-03-08T08:56:04.203Z,7.18
2018-03-08T09:01:03.508Z,7.21
2018-03-08T09:06:03.939Z,7.19
2018-03-08T09:11:03.565Z,7.23
2018-03-08T09:16:03.803Z,7.28
2018-03-08T09:21:04.392Z,7.26
2018-03-08T09:26:03.548Z,7.27
2018-03-08T09:31:03.800Z,7.27
2018-03-08T09:36:04.293Z,7.29
2018-03-08T09:41:03.885Z,7.29
2018-03-08T09:46:04.183Z,7.32
2018-03-08T09:51:03.630Z,7.32
2018-03-08T09:56:03.841Z,7.32
2018-03-08T10:01:04.092Z,7.33
2018-03-08T10:06:03.601Z,7.35
2018-03-08T10:11:04.210Z,7.36
2018-03-08T10:16:03.481Z,7.36
2018-03-08T10:21:03.976Z,7.36
2018-03-08T10:26:04.153Z,7.37
2018-03-08T10:31:03.472Z,7.37
2018-03-08T10:36:03.900Z,7.42
2018-03-08T10:41:03.838Z,7.42
2018-03-08T10:46:03.795Z,7.40
2018-03-08T10:51:04.224Z,7.42
2018-03-08T10:56:03.489Z,7.41
2018-03-08T11:01:03.746Z,7.42
2018-03-08T11:06:04.184Z,7.44
2018-03-08T11:11:03.799Z,7.44
2018-03-08T11:16:04.080Z,7.46
2018-03-08T11:21:03.544Z,7.47
2018-03-08T11:26:03.810Z,7.46
2018-03-08T11:31:04.066Z,7.44
2018-03-08T11:36:04.540Z,7.45
2018-03-08T11:41:04.135Z,7.51
2018-03-08T11:46:04.387Z,7.45
2018-03-08T11:51:03.860Z,7.45
2018-03-08T11:56:04.095Z,7.47
2018-03-08T12:01:04.345Z,7.48
2018-03-08T12:06:03.803Z,7.45
2018-03-08T12:11:04.639Z,7.46
2018-03-08T12:16:03.673Z,7.46
2018-03-08T12:21:04.164Z,7.45
2018-03-08T12:26:04.406Z,7.49
2018-03-08T12:31:03.649Z,7.46
2018-03-08T12:36:04.120Z,7.46
2018-03-08T12:41:03.713Z,7.49
2018-03-08T12:46:03.984Z,7.51
2018-03-08T12:51:04.449Z,7.49
2018-03-08T12:56:03.875Z,7.47
2018-03-08T13:01:03.959Z,7.49
2018-03-08T13:06:04.427Z,7.49
2018-03-08T13:11:04.032Z,7.48
2018-03-08T13:16:04.288Z,7.50
2018-03-08T13:21:03.770Z,7.51
2018-03-08T13:26:03.982Z,7.49
2018-03-08T13:31:04.259Z,7.50
2018-03-08T13:36:03.726Z,7.48
2018-03-08T13:41:04.341Z,7.47
2018-03-08T13:46:03.625Z,7.48
2018-03-08T13:51:04.079Z,7.47
2018-03-08T13:56:04.298Z,7.46
2018-03-08T14:01:03.547Z,7.46
2018-03-08T14:06:04.050Z,7.46
2018-03-08T14:11:03.651Z,6.87
2018-03-08T14:16:03.910Z,6.74
2018-03-08T14:21:04.428Z,7.21
2018-03-08T14:26:04.443Z,7.29
2018-03-08T14:31:04.759Z,7.31
2018-03-08T14:36:05.175Z,7.33
2018-03-08T14:41:04.780Z,7.36
2018-03-08T14:46:05.061Z,7.38
2018-03-08T14:51:04.518Z,7.41
2018-03-08T14:56:04.772Z,7.45
2018-03-08T15:01:05.022Z,7.43
2018-03-08T15:06:04.456Z,7.46
2018-03-08T15:11:05.051Z,7.45
2018-03-08T15:16:04.401Z,7.44
2018-03-08T15:21:04.856Z,7.46
2018-03-08T15:26:05.073Z,7.31
2018-03-08T15:31:04.421Z,7.37
2018-03-08T15:36:04.813Z,7.41
2018-03-08T15:41:03.865Z,7.42
2018-03-08T15:46:04.120Z,7.44
2018-03-08T15:51:04.371Z,7.07
2018-03-08T15:56:04.191Z,7.11
2018-03-08T16:01:04.272Z,7.23
2018-03-08T16:06:05.509Z,7.24
2018-03-08T16:11:04.169Z,7.31
2018-03-08T16:16:04.361Z,7.36
2018-03-08T16:21:03.703Z,7.40
2018-03-08T16:26:03.898Z,7.43
2018-03-08T16:31:04.137Z,7.44
2018-03-08T16:36:03.727Z,7.48
2018-03-08T16:41:04.201Z,7.48
2018-03-08T16:46:03.487Z,7.48
2018-03-08T16:51:03.986Z,7.48
2018-03-08T16:56:04.151Z,7.52
2018-03-08T17:01:04.410Z,7.55
2018-03-08T17:06:03.881Z,7.50
2018-03-08T17:11:03.621Z,7.52
2018-03-08T17:16:04.139Z,7.52
2018-03-08T17:21:04.250Z,7.53
2018-03-08T17:26:03.514Z,7.53
2018-03-08T17:31:04.027Z,7.54
2018-03-08T17:36:04.437Z,7.54
2018-03-08T17:41:03.885Z,7.54
2018-03-08T17:46:04.095Z,7.56
2018-03-08T17:51:03.591Z,7.57
2018-03-08T17:56:03.964Z,7.56
2018-03-08T18:01:04.053Z,7.55
2018-03-08T18:06:04.555Z,7.54
2018-03-08T18:11:04.123Z,7.59
2018-03-08T18:16:04.463Z,7.59
2018-03-08T18:21:03.921Z,7.57
2018-03-08T18:26:04.603Z,7.58
2018-03-08T18:31:04.738Z,7.59
2018-03-08T18:36:04.236Z,7.54
2018-03-08T18:41:05.000Z,7.56
2018-03-08T18:46:03.686Z,7.55
2018-03-08T18:51:04.586Z,7.58
2018-03-08T18:56:04.558Z,7.55
2018-03-08T19:01:04.593Z,7.56
2018-03-08T19:06:04.324Z,7.57
2018-03-08T19:11:03.968Z,7.59
2018-03-08T19:16:03.945Z,7.56
2018-03-08T19:21:05.010Z,7.57
2018-03-08T19:26:03.851Z,7.57
2018-03-08T19:31:04.387Z,7.55
2018-03-08T19:36:05.149Z,7.57
2018-03-08T19:41:05.596Z,7.57
2018-03-08T19:46:04.318Z,7.57
2018-03-08T19:51:05.168Z,7.56
2018-03-08T19:56:05.525Z,7.60
2018-03-08T20:01:04.608Z,7.59
2018-03-08T20:06:04.856Z,7.27
2018-03-08T20:11:05.667Z,7.16
2018-03-08T20:41:03.686Z,7.32
2018-03-08T20:46:01.162Z,7.40
2018-03-08T20:51:01.891Z,7.47
2018-03-08T20:56:03.699Z,7.49
2018-03-08T21:01:02.088Z,7.52
2018-03-08T21:06:01.071Z,7.52
2018-03-08T21:11:01.703Z,7.49
2018-03-08T21:16:01.700Z,7.52
2018-03-08T21:21:00.975Z,7.53
2018-03-08T21:26:01.444Z,7.52
2018-03-08T21:31:01.014Z,7.55
2018-03-08T21:36:01.474Z,7.53
2018-03-08T21:41:00.998Z,7.52
2018-03-08T21:46:01.192Z,7.53
2018-03-08T21:51:01.490Z,7.54
2018-03-08T21:56:01.948Z,7.56
2018-03-08T22:01:01.894Z,7.54
2018-03-08T22:06:01.800Z,7.55
2018-03-08T22:11:01.252Z,7.53
2018-03-08T22:16:01.473Z,7.53
2018-03-08T22:21:01.778Z,7.49
2018-03-08T22:26:01.192Z,7.55
2018-03-08T22:31:01.791Z,7.54
2018-03-08T22:36:01.093Z,7.54
2018-03-08T22:41:01.581Z,7.51
2018-03-08T22:46:01.791Z,7.54
2018-03-08T22:51:01.054Z,7.52
2018-03-08T22:56:01.535Z,7.53
2018-03-08T23:01:01.066Z,7.38
2018-03-08T23:06:01.418Z,7.45
2018-03-08T23:11:01.800Z,7.48
2018-03-08T23:16:01.052Z,7.41
2018-03-08T23:21:02.838Z,7.46
